Time;durP1;ratioP1;P1;durP2;ratioP2;P2;SDS_P1;SDS_P2;PMS_P1;PMS_P2;Temp;Humidity;BMP_temperature;BMP_pressure;BME280_temperature;BME280_humidity;BME280_pressure;Samples;Min_cycle;Max_cycle;Signal;HPM_P1;HPM_P2
2022/12/20 00:00:44;;;;;;;;;;;8.50;99.90;;;;;;5012647;28;20199;-77
2022/12/20 00:03:10;;;;;;;;;;;8.50;99.90;;;;;;5012426;28;19909;-80
2022/12/20 00:05:36;;;;;;;;;;;8.60;99.90;;;;;;5011797;28;19925;-78
2022/12/20 00:08:01;;;;;;;;;;;8.60;99.90;;;;;;5012539;28;20005;-77
2022/12/20 00:10:27;;;;;;;;;;;8.60;99.90;;;;;;5012106;28;20020;-78
2022/12/20 00:12:53;;;;;;;;;;;8.50;99.90;;;;;;5012073;28;20279;-82
2022/12/20 00:15:19;;;;;;;;;;;8.50;99.90;;;;;;5012308;28;19909;-81
2022/12/20 00:17:45;;;;;;;;;;;8.50;99.90;;;;;;5012170;28;19910;-79
2022/12/20 00:20:11;;;;;;;;;;;8.50;99.90;;;;;;5011449;28;19916;-78
2022/12/20 00:22:36;;;;;;;;;;;8.50;99.90;;;;;;5012357;28;20014;-78
2022/12/20 00:25:02;;;;;;;;;;;8.50;99.90;;;;;;5012251;28;19917;-78
2022/12/20 00:27:28;;;;;;;;;;;8.50;99.90;;;;;;5010914;28;19917;-78
2022/12/20 00:29:54;;;;;;;;;;;8.50;99.90;;;;;;5010753;28;20120;-77
2022/12/20 00:32:19;;;;;;;;;;;8.50;99.90;;;;;;5012255;28;19973;-79
2022/12/20 00:34:45;;;;;;;;;;;8.50;99.90;;;;;;5013084;28;19996;-78
2022/12/20 00:37:11;;;;;;;;;;;8.60;99.90;;;;;;5012441;28;20012;-78
2022/12/20 00:39:36;;;;;;;;;;;8.60;99.90;;;;;;5012482;28;20044;-77
2022/12/20 00:42:02;;;;;;;;;;;8.60;99.90;;;;;;5012169;28;20308;-78
2022/12/20 00:44:28;;;;;;;;;;;8.60;99.90;;;;;;5011768;28;19909;-77
2022/12/20 00:46:53;;;;;;;;;;;8.70;99.90;;;;;;5011586;28;19921;-78
2022/12/20 00:49:19;;;;;;;;;;;8.80;99.90;;;;;;5011667;28;20016;-80
2022/12/20 00:51:44;;;;;;;;;;;8.70;99.90;;;;;;5011835;28;20363;-78
2022/12/20 00:54:10;;;;;;;;;;;8.80;99.90;;;;;;5011572;28;20255;-77
2022/12/20 00:56:35;;;;;;;;;;;8.80;99.90;;;;;;5011481;28;19999;-78
2022/12/20 00:59:01;;;;;;;;;;;8.80;99.90;;;;;;5011953;28;19962;-78
2022/12/20 01:01:29;;;;;;;;;;;8.80;99.90;;;;;;5012714;28;19921;-79
2022/12/20 01:03:54;;;;;;;;;;;8.80;99.90;;;;;;5014072;28;19916;-78
2022/12/20 01:06:21;;;;;;;;;;;8.80;99.90;;;;;;5014325;28;19926;-81
2022/12/20 01:08:46;;;;;;;;;;;8.90;99.90;;;;;;5014229;28;19944;-78
2022/12/20 01:11:12;;;;;;;;;;;8.80;99.90;;;;;;5012197;28;19979;-78
2022/12/20 01:13:39;;;;;;;;;;;8.80;99.90;;;;;;5011083;28;19909;-78
2022/12/20 01:16:13;;;;;;;;;;;8.80;99.90;;;;;;5026871;28;19910;-79
2022/12/20 01:18:39;;;;;;;;;;;8.80;99.90;;;;;;5034082;28;19902;-79
2022/12/20 01:21:07;;;;;;;;;;;8.80;99.90;;;;;;5034823;28;19908;-78
2022/12/20 01:23:32;;;;;;;;;;;8.80;99.90;;;;;;5034273;28;19929;-79
2022/12/20 01:26:01;;;;;;;;;;;8.80;99.90;;;;;;5033767;28;19910;-77
2022/12/20 01:28:27;;;;;;;;;;;8.90;99.90;;;;;;5034149;28;19913;-85
2022/12/20 01:30:52;;;;;;;;;;;8.90;99.90;;;;;;5019938;28;19914;-78
2022/12/20 01:33:18;;;;;;;;;;;8.90;99.90;;;;;;5014399;28;19910;-78
2022/12/20 01:36:04;;;;;;;;;;;8.90;99.90;;;;;;5014661;28;19921;-79
2022/12/20 01:38:30;;;;;;;;;;;8.90;99.90;;;;;;5013563;28;19961;-78
2022/12/20 01:40:58;;;;;;;;;;;8.80;99.90;;;;;;5013630;28;20378;-78
2022/12/20 01:43:24;;;;;;;;;;;8.80;99.90;;;;;;5014567;28;19936;-78
2022/12/20 01:45:51;;;;;;;;;;;8.80;99.90;;;;;;5014536;28;20283;-78
2022/12/20 01:48:20;;;;;;;;;;;8.80;99.90;;;;;;5014817;28;19909;-78
2022/12/20 01:50:47;;;;;;;;;;;8.80;99.90;;;;;;5014349;28;20240;-78
2022/12/20 01:53:13;;;;;;;;;;;8.80;99.90;;;;;;5014400;28;19956;-78
2022/12/20 01:55:39;;;;;;;;;;;8.80;99.90;;;;;;5014668;28;19910;-78
2022/12/20 01:58:05;;;;;;;;;;;8.80;99.90;;;;;;5015355;28;20280;-81
2022/12/20 02:00:31;;;;;;;;;;;8.80;99.90;;;;;;5015044;28;19916;-79
2022/12/20 02:03:02;;;;;;;;;;;8.80;99.90;;;;;;5015254;28;19996;-79
2022/12/20 02:05:32;;;;;;;;;;;8.80;99.90;;;;;;5012910;28;19929;-79
2022/12/20 02:07:58;;;;;;;;;;;8.70;99.90;;;;;;5015019;28;19910;-79
2022/12/20 02:10:27;;;;;;;;;;;8.70;99.90;;;;;;5014600;28;20008;-84
2022/12/20 02:12:59;;;;;;;;;;;8.70;99.90;;;;;;5014849;28;20113;-78
2022/12/20 02:15:31;;;;;;;;;;;8.60;99.90;;;;;;5013930;28;19916;-83
2022/12/20 02:18:02;;;;;;;;;;;8.60;99.90;;;;;;5014599;28;19909;-79
2022/12/20 02:20:28;;;;;;;;;;;8.60;99.90;;;;;;5014167;28;19910;-80
2022/12/20 02:23:12;;;;;;;;;;;8.60;99.90;;;;;;5014366;28;19914;-79
2022/12/20 02:25:38;;;;;;;;;;;8.60;99.90;;;;;;5013929;28;20012;-79
2022/12/20 02:28:19;;;;;;;;;;;8.50;99.90;;;;;;5013056;28;20369;-79
2022/12/20 02:30:45;;;;;;;;;;;8.50;99.90;;;;;;5013948;28;19967;-80
2022/12/20 02:33:11;;;;;;;;;;;8.40;99.90;;;;;;5013993;28;19916;-79
2022/12/20 02:35:38;;;;;;;;;;;8.40;99.90;;;;;;5012880;28;19917;-79
2022/12/20 02:38:22;;;;;;;;;;;8.40;99.90;;;;;;5014619;28;20236;-79
2022/12/20 02:40:50;;;;;;;;;;;8.50;99.90;;;;;;5013577;28;19920;-79
2022/12/20 02:46:01;;;;;;;;;;;8.40;99.90;;;;;;5014189;28;19963;-80
2022/12/20 02:48:29;;;;;;;;;;;8.40;99.90;;;;;;5013348;28;19989;-85
2022/12/20 02:50:56;;;;;;;;;;;8.40;99.90;;;;;;5014293;28;19995;-80
2022/12/20 02:53:22;;;;;;;;;;;8.30;99.90;;;;;;5013822;28;19909;-80
2022/12/20 02:55:58;;;;;;;;;;;8.30;99.90;;;;;;5013631;28;19918;-79
2022/12/20 02:58:23;;;;;;;;;;;8.30;99.90;;;;;;5013808;28;20267;-80
2022/12/20 03:00:50;;;;;;;;;;;8.20;99.90;;;;;;5013459;28;19916;-80
2022/12/20 03:03:21;;;;;;;;;;;8.20;99.90;;;;;;5013615;28;19910;-80
2022/12/20 03:05:47;;;;;;;;;;;8.20;99.90;;;;;;5011883;28;20004;-80
2022/12/20 03:08:13;;;;;;;;;;;8.20;99.90;;;;;;5013622;28;19992;-79
2022/12/20 03:10:38;;;;;;;;;;;8.20;99.90;;;;;;5012996;28;19967;-80
2022/12/20 03:13:04;;;;;;;;;;;8.20;99.90;;;;;;5013509;28;19909;-79
2022/12/20 03:15:30;;;;;;;;;;;8.10;99.90;;;;;;5012794;28;19921;-80
2022/12/20 03:17:55;;;;;;;;;;;8.20;99.90;;;;;;5012941;28;20359;-79
2022/12/20 03:20:21;;;;;;;;;;;8.10;99.90;;;;;;5011955;28;19959;-79
2022/12/20 03:22:46;;;;;;;;;;;8.10;99.90;;;;;;5012578;28;20139;-80
2022/12/20 03:25:12;;;;;;;;;;;8.10;99.90;;;;;;5012760;28;19988;-79
2022/12/20 03:27:38;;;;;;;;;;;8.10;99.90;;;;;;5013020;28;19910;-80
2022/12/20 03:30:04;;;;;;;;;;;8.10;99.90;;;;;;5013283;28;20015;-80
2022/12/20 03:32:30;;;;;;;;;;;8.00;99.90;;;;;;5012743;28;19916;-84
2022/12/20 03:34:55;;;;;;;;;;;8.00;99.90;;;;;;5012660;28;20007;-80
2022/12/20 03:37:21;;;;;;;;;;;7.90;99.90;;;;;;5012845;28;19922;-79
2022/12/20 03:39:47;;;;;;;;;;;7.90;99.90;;;;;;5012360;28;19916;-79
2022/12/20 03:42:12;;;;;;;;;;;7.90;99.90;;;;;;5012242;28;19919;-79
2022/12/20 03:44:38;;;;;;;;;;;7.90;99.90;;;;;;5012073;28;20376;-80
2022/12/20 03:47:03;;;;;;;;;;;7.80;99.90;;;;;;5012059;28;19913;-79
2022/12/20 03:49:29;;;;;;;;;;;7.90;99.90;;;;;;5012569;28;19919;-83
2022/12/20 03:51:54;;;;;;;;;;;7.90;99.90;;;;;;5012257;28;19971;-80
2022/12/20 03:54:20;;;;;;;;;;;7.90;99.90;;;;;;5012002;28;19914;-79
2022/12/20 03:56:46;;;;;;;;;;;7.90;99.90;;;;;;5011892;28;19964;-80
2022/12/20 03:59:11;;;;;;;;;;;7.90;99.90;;;;;;5012760;28;19916;-80
2022/12/20 04:01:37;;;;;;;;;;;7.90;99.90;;;;;;5012129;28;20431;-80
2022/12/20 04:04:03;;;;;;;;;;;8.00;99.90;;;;;;5011294;28;20279;-80
2022/12/20 04:06:28;;;;;;;;;;;8.00;99.90;;;;;;5012262;28;20243;-79
2022/12/20 04:08:54;;;;;;;;;;;8.00;99.90;;;;;;5011912;28;20024;-80
2022/12/20 04:11:19;;;;;;;;;;;8.00;99.90;;;;;;5012115;28;20326;-79
2022/12/20 04:13:46;;;;;;;;;;;8.00;99.90;;;;;;5011745;28;19909;-80
2022/12/20 04:16:14;;;;;;;;;;;8.00;99.90;;;;;;5012695;28;19952;-79
2022/12/20 04:18:40;;;;;;;;;;;8.00;99.90;;;;;;5011435;28;19910;-80
2022/12/20 04:21:06;;;;;;;;;;;8.00;99.90;;;;;;5012425;28;20365;-80
2022/12/20 04:23:35;;;;;;;;;;;7.90;99.90;;;;;;5012436;28;19910;-84
2022/12/20 04:26:01;;;;;;;;;;;7.90;99.90;;;;;;5012340;28;19917;-80
2022/12/20 04:28:27;;;;;;;;;;;7.90;99.90;;;;;;5011949;28;19955;-79
2022/12/20 04:30:53;;;;;;;;;;;7.90;99.90;;;;;;5011940;28;19956;-79
2022/12/20 04:33:18;;;;;;;;;;;7.90;99.90;;;;;;5011999;28;19909;-80
2022/12/20 04:35:44;;;;;;;;;;;7.90;99.90;;;;;;5011597;28;19909;-81
2022/12/20 04:38:09;;;;;;;;;;;7.90;99.90;;;;;;5011392;28;19921;-80
2022/12/20 04:40:35;;;;;;;;;;;7.90;99.90;;;;;;5010376;28;20071;-83
2022/12/20 04:43:00;;;;;;;;;;;7.80;99.90;;;;;;5012023;28;20322;-80
2022/12/20 04:45:26;;;;;;;;;;;7.80;99.90;;;;;;5011744;28;19971;-80
2022/12/20 04:47:52;;;;;;;;;;;7.80;99.90;;;;;;5011563;28;19916;-80
2022/12/20 04:50:18;;;;;;;;;;;7.80;99.90;;;;;;5012051;28;19909;-81
2022/12/20 04:55:27;;;;;;;;;;;7.70;99.90;;;;;;5011833;28;20271;-80
2022/12/20 04:57:53;;;;;;;;;;;7.70;99.90;;;;;;5011452;28;19914;-80
2022/12/20 05:00:19;;;;;;;;;;;7.70;99.90;;;;;;5012191;28;20382;-79
2022/12/20 05:02:45;;;;;;;;;;;7.70;99.90;;;;;;5010604;28;20012;-79
2022/12/20 05:05:11;;;;;;;;;;;7.70;99.90;;;;;;5012028;28;20060;-79
2022/12/20 05:07:36;;;;;;;;;;;7.70;99.90;;;;;;5011555;28;19971;-81
2022/12/20 05:10:02;;;;;;;;;;;7.70;99.90;;;;;;5012160;28;19909;-79
2022/12/20 05:12:28;;;;;;;;;;;7.60;99.90;;;;;;5011562;28;19917;-79
2022/12/20 05:14:53;;;;;;;;;;;7.70;99.90;;;;;;5011943;28;20403;-79
2022/12/20 05:17:19;;;;;;;;;;;7.80;99.90;;;;;;5012024;28;19920;-79
2022/12/20 05:19:45;;;;;;;;;;;7.90;99.90;;;;;;5011970;28;19972;-79
2022/12/20 05:27:39;;;;;;;;;;;8.10;99.90;;;;;;5011815;28;19921;-80
2022/12/20 05:30:05;;;;;;;;;;;8.10;99.90;;;;;;5012167;28;19909;-79
2022/12/20 05:32:30;;;;;;;;;;;8.10;99.90;;;;;;5012221;28;19916;-79
2022/12/20 05:34:56;;;;;;;;;;;8.20;99.90;;;;;;5012200;28;19948;-79
2022/12/20 05:37:21;;;;;;;;;;;8.10;99.90;;;;;;5012123;28;19925;-79
2022/12/20 05:39:47;;;;;;;;;;;8.10;99.90;;;;;;5011547;28;19956;-80
2022/12/20 05:42:13;;;;;;;;;;;8.10;99.90;;;;;;5010392;28;19909;-80
2022/12/20 05:44:38;;;;;;;;;;;8.10;99.90;;;;;;5011933;28;19909;-81
2022/12/20 05:47:04;;;;;;;;;;;8.00;99.90;;;;;;5011922;28;19964;-80
2022/12/20 05:49:29;;;;;;;;;;;8.00;99.90;;;;;;5010658;28;19910;-79
2022/12/20 05:51:55;;;;;;;;;;;7.90;99.90;;;;;;5011670;28;19913;-79
2022/12/20 05:54:21;;;;;;;;;;;7.90;99.90;;;;;;5012044;28;19917;-78
2022/12/20 05:56:46;;;;;;;;;;;7.80;99.90;;;;;;5011809;28;19917;-80
2022/12/20 05:59:12;;;;;;;;;;;7.70;99.90;;;;;;5014045;28;19986;-80
2022/12/20 06:01:37;;;;;;;;;;;7.70;99.90;;;;;;5015095;28;19909;-80
2022/12/20 06:04:03;;;;;;;;;;;7.60;99.90;;;;;;5013926;28;19913;-80
2022/12/20 06:06:28;;;;;;;;;;;7.60;99.90;;;;;;5014723;28;20013;-79
2022/12/20 06:08:55;;;;;;;;;;;7.60;99.90;;;;;;5014279;28;19910;-79
2022/12/20 06:11:20;;;;;;;;;;;7.60;99.90;;;;;;5014742;28;19909;-79
2022/12/20 06:13:46;;;;;;;;;;;7.60;99.90;;;;;;5019727;28;19933;-80
2022/12/20 06:16:11;;;;;;;;;;;7.60;99.90;;;;;;5033559;28;19951;-81
2022/12/20 06:18:37;;;;;;;;;;;7.50;99.90;;;;;;5036065;28;19960;-80
2022/12/20 06:21:02;;;;;;;;;;;7.50;99.90;;;;;;5037452;28;19931;-79
2022/12/20 06:23:28;;;;;;;;;;;7.50;99.90;;;;;;5037862;28;19917;-80
2022/12/20 06:25:54;;;;;;;;;;;7.60;99.90;;;;;;5037332;28;19921;-80
2022/12/20 06:28:20;;;;;;;;;;;7.50;99.90;;;;;;5038012;28;19973;-80
2022/12/20 06:30:53;;;;;;;;;;;7.50;99.90;;;;;;5037126;28;20001;-80
2022/12/20 06:33:18;;;;;;;;;;;7.50;99.90;;;;;;5028270;28;19944;-79
2022/12/20 06:35:44;;;;;;;;;;;7.50;99.90;;;;;;5022182;28;19918;-81
2022/12/20 06:38:11;;;;;;;;;;;7.50;99.90;;;;;;5022853;28;19975;-80
2022/12/20 06:40:36;;;;;;;;;;;7.50;99.90;;;;;;5019572;28;20339;-80
2022/12/20 06:43:02;;;;;;;;;;;7.50;99.90;;;;;;5018608;28;19906;-79
2022/12/20 06:45:27;;;;;;;;;;;7.50;99.90;;;;;;5018691;28;19983;-80
2022/12/20 06:47:53;;;;;;;;;;;7.50;99.90;;;;;;5018016;28;19935;-80
2022/12/20 06:50:18;;;;;;;;;;;7.40;99.90;;;;;;5018067;28;20570;-80
2022/12/20 06:52:44;;;;;;;;;;;7.40;99.90;;;;;;5016197;28;19916;-84
2022/12/20 06:55:10;;;;;;;;;;;7.40;99.90;;;;;;5016755;28;19959;-79
2022/12/20 06:57:35;;;;;;;;;;;7.40;99.90;;;;;;5017711;28;19917;-79
2022/12/20 07:00:01;;;;;;;;;;;7.40;99.90;;;;;;5016767;28;19945;-79
2022/12/20 07:02:27;;;;;;;;;;;7.30;99.90;;;;;;5016403;28;20005;-79
2022/12/20 07:04:52;;;;;;;;;;;7.30;99.90;;;;;;5016698;28;20275;-79
2022/12/20 07:07:18;;;;;;;;;;;7.30;99.90;;;;;;5016160;28;19909;-79
2022/12/20 07:09:43;;;;;;;;;;;7.30;99.90;;;;;;5015969;28;19983;-83
2022/12/20 07:12:09;;;;;;;;;;;7.30;99.90;;;;;;5016410;28;19913;-78
2022/12/20 07:14:35;;;;;;;;;;;7.20;99.90;;;;;;5015680;28;19961;-79
2022/12/20 07:17:01;;;;;;;;;;;7.20;99.90;;;;;;5014750;28;20001;-79
2022/12/20 07:19:26;;;;;;;;;;;7.20;99.90;;;;;;5016692;28;19917;-79
2022/12/20 07:21:52;;;;;;;;;;;7.20;99.90;;;;;;5013781;28;20333;-80
2022/12/20 07:24:18;;;;;;;;;;;7.20;99.90;;;;;;5014644;28;19910;-79
2022/12/20 07:26:44;;;;;;;;;;;7.20;99.90;;;;;;5015589;28;19976;-83
2022/12/20 07:29:10;;;;;;;;;;;7.30;99.90;;;;;;5014642;28;19909;-80
2022/12/20 07:31:36;;;;;;;;;;;7.20;99.90;;;;;;5014438;28;19965;-78
2022/12/20 07:34:02;;;;;;;;;;;7.30;99.90;;;;;;5014065;28;20348;-78
2022/12/20 07:36:27;;;;;;;;;;;7.30;99.90;;;;;;5014924;28;19910;-79
2022/12/20 07:38:53;;;;;;;;;;;7.40;99.90;;;;;;5013406;28;19922;-79
2022/12/20 07:41:18;;;;;;;;;;;7.30;99.90;;;;;;5014276;28;19909;-79
2022/12/20 07:43:44;;;;;;;;;;;7.30;99.90;;;;;;5014549;28;20043;-79
2022/12/20 07:46:11;;;;;;;;;;;7.30;99.90;;;;;;5013694;28;19917;-78
2022/12/20 07:48:37;;;;;;;;;;;7.30;99.90;;;;;;5013490;28;19910;-78
2022/12/20 07:51:08;;;;;;;;;;;7.20;99.90;;;;;;5013555;28;19915;-78
2022/12/20 07:53:36;;;;;;;;;;;7.20;99.90;;;;;;5013769;28;19921;-78
2022/12/20 07:56:03;;;;;;;;;;;7.20;99.90;;;;;;5013834;28;19910;-78
2022/12/20 07:58:29;;;;;;;;;;;7.20;99.90;;;;;;5013747;28;20008;-79
2022/12/20 08:00:55;;;;;;;;;;;7.20;99.90;;;;;;5013224;28;19953;-79
2022/12/20 08:03:30;;;;;;;;;;;7.10;99.90;;;;;;5013947;28;19909;-79
2022/12/20 08:05:58;;;;;;;;;;;7.10;99.90;;;;;;5013656;28;19917;-79
2022/12/20 08:08:23;;;;;;;;;;;7.10;99.90;;;;;;5013524;28;19975;-79
2022/12/20 08:10:49;;;;;;;;;;;7.10;99.90;;;;;;5013510;28;19917;-81
2022/12/20 08:13:15;;;;;;;;;;;7.10;99.90;;;;;;5013693;28;19916;-79
2022/12/20 08:15:40;;;;;;;;;;;7.10;99.90;;;;;;5013441;28;20276;-79
2022/12/20 08:18:06;;;;;;;;;;;7.10;99.90;;;;;;5012819;28;20000;-80
2022/12/20 08:20:32;;;;;;;;;;;7.10;99.90;;;;;;5013384;28;20252;-80
2022/12/20 08:22:57;;;;;;;;;;;7.10;99.90;;;;;;5012682;28;19996;-79
2022/12/20 08:25:23;;;;;;;;;;;7.00;99.90;;;;;;5013073;28;20496;-79
2022/12/20 08:27:48;;;;;;;;;;;7.10;99.90;;;;;;5013222;28;19914;-84
2022/12/20 08:30:14;;;;;;;;;;;7.10;99.90;;;;;;5012096;28;19910;-81
2022/12/20 08:32:40;;;;;;;;;;;7.20;99.90;;;;;;5012079;28;19993;-82
2022/12/20 08:35:06;;;;;;;;;;;7.10;99.90;;;;;;5013005;28;20001;-81
2022/12/20 08:37:32;;;;;;;;;;;7.10;99.90;;;;;;5012567;28;20366;-81
2022/12/20 08:39:57;;;;;;;;;;;7.10;99.90;;;;;;5012333;28;19921;-81
2022/12/20 08:42:23;;;;;;;;;;;7.10;99.90;;;;;;5012666;28;19916;-81
2022/12/20 08:44:48;;;;;;;;;;;7.00;99.90;;;;;;5012895;28;19909;-85
2022/12/20 08:47:14;;;;;;;;;;;7.00;99.90;;;;;;5012668;28;20000;-80
2022/12/20 08:49:40;;;;;;;;;;;7.00;99.90;;;;;;5012317;28;19913;-81
2022/12/20 08:52:05;;;;;;;;;;;7.00;99.90;;;;;;5012238;28;19910;-81
2022/12/20 08:54:31;;;;;;;;;;;7.00;99.90;;;;;;5013158;28;19909;-80
2022/12/20 08:56:56;;;;;;;;;;;7.00;99.90;;;;;;5012582;28;19917;-81
2022/12/20 08:59:22;;;;;;;;;;;7.00;99.90;;;;;;5012872;28;19999;-81
2022/12/20 09:01:48;;;;;;;;;;;7.00;99.90;;;;;;5012686;28;19913;-81
2022/12/20 09:04:15;;;;;;;;;;;7.10;99.90;;;;;;5012271;28;19929;-82
2022/12/20 09:06:40;;;;;;;;;;;7.10;99.90;;;;;;5012348;28;19918;-80
2022/12/20 09:09:06;;;;;;;;;;;7.20;99.90;;;;;;5011840;28;19910;-80
2022/12/20 09:11:32;;;;;;;;;;;7.20;99.90;;;;;;5012111;28;19909;-80
2022/12/20 09:13:58;;;;;;;;;;;7.10;99.90;;;;;;5011421;28;19914;-80
2022/12/20 09:16:25;;;;;;;;;;;7.20;99.90;;;;;;5011986;28;20024;-79
2022/12/20 09:18:52;;;;;;;;;;;7.10;99.90;;;;;;5011830;28;19933;-83
2022/12/20 09:21:18;;;;;;;;;;;7.10;99.90;;;;;;5011543;28;19916;-80
2022/12/20 09:23:43;;;;;;;;;;;7.10;99.90;;;;;;5011542;28;20248;-80
2022/12/20 09:26:11;;;;;;;;;;;7.10;99.90;;;;;;5011313;28;19918;-80
2022/12/20 09:28:36;;;;;;;;;;;7.10;99.90;;;;;;5011760;28;19917;-80
2022/12/20 09:31:04;;;;;;;;;;;7.10;99.90;;;;;;5011075;28;19910;-80
2022/12/20 09:33:30;;;;;;;;;;;7.10;99.90;;;;;;5011581;28;19910;-80
2022/12/20 09:35:56;;;;;;;;;;;7.10;99.90;;;;;;5011128;28;19910;-81
2022/12/20 09:38:22;;;;;;;;;;;7.00;99.90;;;;;;5011430;28;19927;-80
2022/12/20 09:40:49;;;;;;;;;;;7.00;99.90;;;;;;5010071;28;20347;-80
2022/12/20 09:43:15;;;;;;;;;;;7.00;99.90;;;;;;5011145;28;20005;-80
2022/12/20 09:45:41;;;;;;;;;;;7.00;99.90;;;;;;5011150;28;20115;-80
2022/12/20 09:48:18;;;;;;;;;;;7.10;99.90;;;;;;5010010;28;19909;-81
2022/12/20 09:50:50;;;;;;;;;;;7.00;99.90;;;;;;5010071;28;19924;-81
2022/12/20 09:53:16;;;;;;;;;;;7.00;99.90;;;;;;5012741;28;19910;-80
2022/12/20 09:55:51;;;;;;;;;;;7.10;99.90;;;;;;5015829;28;20022;-80
2022/12/20 09:58:31;;;;;;;;;;;7.00;99.90;;;;;;5014991;28;19920;-80
2022/12/20 10:00:57;;;;;;;;;;;7.10;99.90;;;;;;5015780;28;19992;-81
2022/12/20 10:03:27;;;;;;;;;;;7.10;99.90;;;;;;5015246;28;19949;-79
2022/12/20 10:05:54;;;;;;;;;;;7.10;99.90;;;;;;5015292;28;19917;-80
2022/12/20 10:08:22;;;;;;;;;;;7.10;99.90;;;;;;5015467;28;19917;-79
2022/12/20 10:10:51;;;;;;;;;;;7.10;99.90;;;;;;5015143;28;19960;-80
2022/12/20 10:13:29;;;;;;;;;;;7.10;99.90;;;;;;5014521;28;19909;-80
2022/12/20 10:16:02;;;;;;;;;;;7.10;99.90;;;;;;5015130;28;19925;-81
2022/12/20 10:18:28;;;;;;;;;;;7.20;99.90;;;;;;5015123;28;19910;-80
2022/12/20 10:21:04;;;;;;;;;;;7.20;99.90;;;;;;5014787;28;20297;-80
2022/12/20 10:23:38;;;;;;;;;;;7.30;99.90;;;;;;5015326;28;19909;-80
2022/12/20 10:26:07;;;;;;;;;;;7.30;99.90;;;;;;5015007;28;19922;-80
2022/12/20 10:28:34;;;;;;;;;;;7.40;99.90;;;;;;5014690;28;19909;-80
2022/12/20 10:31:05;;;;;;;;;;;7.40;99.90;;;;;;5013672;28;19917;-81
2022/12/20 10:33:30;;;;;;;;;;;7.40;99.90;;;;;;5014988;28;19916;-80
2022/12/20 10:36:16;;;;;;;;;;;7.50;99.90;;;;;;5013831;28;19909;-82
2022/12/20 10:38:47;;;;;;;;;;;7.50;99.90;;;;;;5014228;28;20028;-80
2022/12/20 10:41:15;;;;;;;;;;;7.50;99.90;;;;;;5014664;28;19957;-80
2022/12/20 10:43:45;;;;;;;;;;;7.50;99.90;;;;;;5014498;28;20359;-80
2022/12/20 10:46:11;;;;;;;;;;;7.60;99.90;;;;;;5014391;28;19964;-80
2022/12/20 10:48:38;;;;;;;;;;;7.70;99.90;;;;;;5014751;28;20018;-81
2022/12/20 10:51:16;;;;;;;;;;;7.70;99.90;;;;;;5014544;28;19913;-80
2022/12/20 10:54:01;;;;;;;;;;;7.80;99.90;;;;;;5014730;28;19921;-79
2022/12/20 10:56:30;;;;;;;;;;;7.80;99.90;;;;;;5014812;28;19909;-81
2022/12/20 10:59:01;;;;;;;;;;;7.90;99.90;;;;;;5014748;28;20216;-82
2022/12/20 11:01:34;;;;;;;;;;;7.90;99.90;;;;;;5014961;28;20019;-81
2022/12/20 11:04:19;;;;;;;;;;;8.00;99.90;;;;;;5014242;28;20335;-81
2022/12/20 11:06:45;;;;;;;;;;;8.00;99.90;;;;;;5013989;28;20003;-80
2022/12/20 11:09:17;;;;;;;;;;;8.00;99.90;;;;;;5012407;28;19964;-80
2022/12/20 11:11:56;;;;;;;;;;;8.00;99.90;;;;;;5014219;28;19909;-81
2022/12/20 11:14:22;;;;;;;;;;;8.00;99.90;;;;;;5014350;28;20370;-80
2022/12/20 11:16:49;;;;;;;;;;;8.00;99.90;;;;;;5014337;28;19909;-80
2022/12/20 11:19:33;;;;;;;;;;;8.00;99.90;;;;;;5014740;28;19941;-81
2022/12/20 11:22:12;;;;;;;;;;;8.00;99.90;;;;;;5014765;28;19917;-82
2022/12/20 11:24:41;;;;;;;;;;;8.00;99.90;;;;;;5017799;28;19969;-81
2022/12/20 11:27:15;;;;;;;;;;;8.00;99.90;;;;;;5016045;28;20314;-80
2022/12/20 11:29:59;;;;;;;;;;;8.00;99.90;;;;;;5016003;28;19910;-80
2022/12/20 11:32:28;;;;;;;;;;;8.00;99.90;;;;;;5014865;28;19914;-80
2022/12/20 11:34:54;;;;;;;;;;;8.10;99.90;;;;;;5016313;28;19913;-80
2022/12/20 11:37:19;;;;;;;;;;;8.10;99.90;;;;;;5015910;28;19960;-80
2022/12/20 11:40:04;;;;;;;;;;;8.20;99.90;;;;;;5015383;28;19922;-79
2022/12/20 11:42:49;;;;;;;;;;;8.10;99.90;;;;;;5034009;28;19918;-80
2022/12/20 11:45:34;;;;;;;;;;;8.10;99.90;;;;;;5035746;28;19941;-85
2022/12/20 11:48:24;;;;;;;;;;;8.10;99.90;;;;;;5035777;28;19917;-84
2022/12/20 11:51:01;;;;;;;;;;;8.10;99.90;;;;;;5036046;28;19984;-81
2022/12/20 11:53:31;;;;;;;;;;;8.00;99.90;;;;;;5035838;28;19913;-81
2022/12/20 11:55:59;;;;;;;;;;;8.00;99.90;;;;;;5035374;28;19964;-85
2022/12/20 11:58:29;;;;;;;;;;;8.00;99.90;;;;;;5025812;28;19967;-79
2022/12/20 12:01:06;;;;;;;;;;;8.10;99.90;;;;;;5012828;28;19967;-80
2022/12/20 12:03:33;;;;;;;;;;;8.10;99.90;;;;;;5012748;28;19916;-80
2022/12/20 12:06:02;;;;;;;;;;;8.20;99.90;;;;;;5012041;28;19993;-84
2022/12/20 12:08:48;;;;;;;;;;;8.20;99.90;;;;;;5012549;28;19909;-80
2022/12/20 12:11:26;;;;;;;;;;;8.20;99.90;;;;;;4989929;28;20251;-79
2022/12/20 12:13:51;;;;;;;;;;;8.30;99.90;;;;;;5012380;28;19941;-80
2022/12/20 12:16:21;;;;;;;;;;;8.40;99.90;;;;;;5011061;28;19977;-81
2022/12/20 12:18:47;;;;;;;;;;;8.40;99.90;;;;;;5012393;28;19920;-80
2022/12/20 12:21:32;;;;;;;;;;;8.40;99.90;;;;;;5010525;28;19910;-81
2022/12/20 12:24:17;;;;;;;;;;;8.40;99.90;;;;;;5011703;28;19945;-84
2022/12/20 12:26:42;;;;;;;;;;;8.40;99.90;;;;;;5010503;28;20339;-80
2022/12/20 12:29:08;;;;;;;;;;;8.40;99.90;;;;;;5011601;28;19940;-80
2022/12/20 12:31:42;;;;;;;;;;;8.30;99.90;;;;;;5011785;28;19913;-80
2022/12/20 12:34:26;;;;;;;;;;;8.30;99.90;;;;;;5011666;28;20000;-81
2022/12/20 12:37:07;;;;;;;;;;;8.30;99.90;;;;;;5011927;28;19910;-80
2022/12/20 12:39:51;;;;;;;;;;;8.30;99.90;;;;;;5011710;28;19921;-80
2022/12/20 12:42:29;;;;;;;;;;;8.40;99.90;;;;;;5011407;28;19999;-79
2022/12/20 12:45:04;;;;;;;;;;;8.40;99.90;;;;;;5012158;28;19913;-80
2022/12/20 12:47:44;;;;;;;;;;;8.40;99.90;;;;;;5012122;28;19909;-79
2022/12/20 12:50:28;;;;;;;;;;;8.40;99.90;;;;;;5011270;28;19985;-79
2022/12/20 12:52:56;;;;;;;;;;;8.40;99.90;;;;;;5011467;28;19939;-80
2022/12/20 12:55:39;;;;;;;;;;;8.40;99.90;;;;;;5011127;28;19910;-79
2022/12/20 12:58:13;;;;;;;;;;;8.40;99.90;;;;;;5011193;28;19920;-80
2022/12/20 13:00:48;;;;;;;;;;;8.40;99.90;;;;;;5011349;28;19928;-80
2022/12/20 13:03:15;;;;;;;;;;;8.40;99.90;;;;;;5010078;28;19938;-80
2022/12/20 13:05:41;;;;;;;;;;;8.30;99.90;;;;;;5011261;28;20177;-80
2022/12/20 13:08:16;;;;;;;;;;;8.40;99.90;;;;;;5010662;28;20358;-80
2022/12/20 13:10:55;;;;;;;;;;;8.40;99.90;;;;;;5011286;28;20020;-80
2022/12/20 13:13:21;;;;;;;;;;;8.40;99.90;;;;;;5011031;28;19910;-79
2022/12/20 13:15:48;;;;;;;;;;;8.40;99.90;;;;;;5011601;28;20351;-78
2022/12/20 13:18:14;;;;;;;;;;;8.30;99.90;;;;;;5010980;28;19920;-79
2022/12/20 13:20:39;;;;;;;;;;;8.40;99.90;;;;;;5011414;28;19910;-79
2022/12/20 13:23:11;;;;;;;;;;;8.30;99.90;;;;;;5009406;28;20035;-79
2022/12/20 13:25:38;;;;;;;;;;;8.30;99.90;;;;;;5011317;28;19992;-79
2022/12/20 13:28:26;;;;;;;;;;;8.30;99.90;;;;;;5014385;28;20005;-80
2022/12/20 13:30:52;;;;;;;;;;;8.30;99.90;;;;;;5015650;28;20232;-78
2022/12/20 13:33:22;;;;;;;;;;;8.40;99.90;;;;;;5021796;28;20072;-80
2022/12/20 13:35:56;;;;;;;;;;;8.40;99.90;;;;;;5015357;28;20278;-80
2022/12/20 13:38:40;;;;;;;;;;;8.30;99.90;;;;;;5015954;28;19932;-79
2022/12/20 13:41:11;;;;;;;;;;;8.30;99.90;;;;;;5014522;28;19910;-81
2022/12/20 13:43:43;;;;;;;;;;;8.40;99.90;;;;;;5015227;28;20000;-81
2022/12/20 13:46:08;;;;;;;;;;;8.40;99.90;;;;;;5014168;28;19917;-81
2022/12/20 13:48:36;;;;;;;;;;;8.30;99.90;;;;;;5014875;28;20371;-82
2022/12/20 13:51:03;;;;;;;;;;;8.30;99.90;;;;;;5014316;28;19913;-82
2022/12/20 13:53:28;;;;;;;;;;;8.40;99.90;;;;;;5014809;28;20010;-80
2022/12/20 13:55:54;;;;;;;;;;;8.30;99.90;;;;;;5015263;28;19913;-80
2022/12/20 13:58:24;;;;;;;;;;;8.30;99.90;;;;;;5014454;28;20469;-80
2022/12/20 14:00:50;;;;;;;;;;;8.30;99.90;;;;;;5014974;28;19991;-80
2022/12/20 14:03:21;;;;;;;;;;;8.30;99.90;;;;;;5013274;28;19913;-80
2022/12/20 14:05:46;;;;;;;;;;;8.30;99.90;;;;;;5014965;28;19925;-80
2022/12/20 14:08:13;;;;;;;;;;;8.20;99.90;;;;;;5014140;28;19909;-81
2022/12/20 14:10:39;;;;;;;;;;;8.20;99.90;;;;;;5014484;28;20007;-78
2022/12/20 14:13:22;;;;;;;;;;;8.20;99.90;;;;;;5014448;28;19960;-78
2022/12/20 14:15:47;;;;;;;;;;;8.10;99.90;;;;;;5014658;28;19948;-77
2022/12/20 14:18:18;;;;;;;;;;;8.20;99.90;;;;;;5014164;28;20019;-77
2022/12/20 14:20:46;;;;;;;;;;;8.20;99.90;;;;;;5014998;28;19921;-77
2022/12/20 14:23:35;;;;;;;;;;;8.20;99.90;;;;;;5013968;28;20325;-78
2022/12/20 14:26:01;;;;;;;;;;;8.20;99.90;;;;;;5008622;28;19917;-82
2022/12/20 14:28:38;;;;;;;;;;;8.20;99.90;;;;;;5014364;28;19917;-78
2022/12/20 14:31:04;;;;;;;;;;;8.20;99.90;;;;;;5014215;28;19910;-85
2022/12/20 14:33:30;;;;;;;;;;;8.10;99.90;;;;;;5012853;28;19917;-78
2022/12/20 14:35:55;;;;;;;;;;;8.10;99.90;;;;;;5014978;28;20009;-78
2022/12/20 14:38:29;;;;;;;;;;;8.10;99.90;;;;;;5012812;28;19980;-78
2022/12/20 14:40:55;;;;;;;;;;;8.10;99.90;;;;;;5014297;28;19997;-78
2022/12/20 14:43:31;;;;;;;;;;;8.10;99.90;;;;;;5013626;28;19995;-77
2022/12/20 14:46:19;;;;;;;;;;;8.10;99.90;;;;;;5014048;28;19917;-78
2022/12/20 14:48:45;;;;;;;;;;;8.00;99.90;;;;;;5014308;28;19913;-77